Portada
METAR-TAF:

METAR-TAF

Aeroports :

Vientiane, Laos

latitud: 17-57N, longitud: 102-34E, altitud: 171 m

Observació

L'informe es va fer fa 34 minuts, a les 11:00 UTC
Vent 4 kt del Est
Temperatura 31°C
Humitat 66%
Pressió 1008 hPa
Visibilitat: 5000 m
Cel ennuvolat a una alçada de 4000 ft
Cel ennuvolat a una alçada de 8300 ft
boirina

METAR: VLVT 181100Z 09004KT 5000 BR BKN040 BKN083 31/24 Q1008 NOSIG

Hora: 18:34 (11:34 UTC)

Pronòstic

L'informe es va fer fa 6 hores i 34 minuts, a les 05:00 UTC
Pronòstic vàlid del 18 a les 06 UTC al 19 a les 06 UTC
Vent 4 kt del Nord/Nord-Oest
Visibilitat: 8000 m
Núvols disperses a una alçada de 1600 ft
Cel ennuvolat a una alçada de 20000 ft

TAF: VLVT 180500Z 1806/1906 34004KT 8000 SCT016 BKN200

Observacions i pronòstics meteorològics de més de 4000 aeroports (METAR i TAF).

Les estacions disponibles són els punts grocs i vermells al mapa.

Posi el ratolí al punt desitjat per veure el nom de l'estació.

Feu clic per veure les observacions i els pronòstics meteorològics.

Per canviar el mapa: feu clic els botons verds amb una creu de color negre per apropar; al botó verd amb un guió per allunyar la imatge; o en les fletxes verdes per a mapes adjacents.


METAR-TAF: